• Join FlightAware (Why Join?)
  • Login
  • US Flag 
08:49PM EDT


 

Airport Tracker/Info


-or-


 

Live Flight TrackerFlight Track Log ✈ BER7689 ✈ 23-Apr-2014 ✈ LEPA / PMI - EDDS / STR

Flight Track Log - Related Links

Times and Time Zones

All times are in EDT time to prevent confusion due to time zone crossing. See the BER7689 flight status page for this flight to view local times or setup timezone preferences in your user account.

Time Position Orientation Groundspeed Altitude Reporting Facility
EDT Latitude Longitude Course Direction KTS MPH feet Rate Location/Type
03:33PM 39.4402 2.6406 99° East 278 320 4,900  Level FlightAware ADS-B (LELL / QSA)
03:33PM 39.4392 2.6514 94° East 277 319 5,200 1,860 Climbing FlightAware ADS-B (LELL / QSA)
03:38PM 39.4950 3.2366 93° East 277 319 14,500 1,800 Climbing FlightAware ADS-B (LELL / QSA)
03:38PM 39.5023 3.2559 63° Northeast 400 460 14,800 1,560 Climbing FlightAware ADS-B (LELL / QSA)
03:39PM 39.5664 3.4243 63° Northeast 423 487 16,700 1,080 Climbing FlightAware ADS-B (LELL / QSA)
03:55PM 41.1776 4.5299 10° North 442 509 34,000 1,020 Climbing FlightAware ADS-B (LELL / QSA)
03:56PM 41.2020 4.3281 23° Northeast  Level Estimated
03:56PM 41.2376 4.5445 10° North 443 510 34,000  Level FlightAware ADS-B (LELL / QSA)
04:11PM 43.0305 5.5531 27° Northeast 450 518 34,000  Level FlightAware ADS-B (LFML / MRS)
04:12PM 43.0873 5.5928 27° Northeast 449 517 34,000  Level FlightAware ADS-B (LFML / MRS)
04:12PM 43.1432 5.6321 27° Northeast 448 516 34,000  Level FlightAware ADS-B (LFML / MRS)
04:13PM 43.1992 5.6714 27° Northeast 448 516 34,000  Level FlightAware ADS-B (LFML / MRS)
04:13PM 43.2548 5.7106 27° Northeast 449 517 34,000  Level FlightAware ADS-B (LFML / MRS)
04:14PM 43.3089 5.7485 26° Northeast 447 514 34,000  Level FlightAware ADS-B (LFML / MRS)
04:14PM 43.3660 5.7869 26° Northeast 448 516 34,000  Level FlightAware ADS-B (LFML / MRS)
04:15PM 43.4221 5.8250 26° Northeast 448 516 34,000  Level FlightAware ADS-B (LFML / MRS)
04:15PM 43.4775 5.8629 26° Northeast 449 517 34,000  Level FlightAware ADS-B (LFML / MRS)
04:16PM 43.5325 5.9006 26° Northeast 449 517 34,000  Level FlightAware ADS-B (LFML / MRS)
04:16PM 43.5879 5.9386 26° Northeast 450 518 34,000  Level FlightAware ADS-B (LFML / MRS)
04:17PM 43.6454 5.9781 26° Northeast 449 517 34,000  Level FlightAware ADS-B (LFML / MRS)
04:17PM 43.7012 6.0166 26° Northeast 450 518 34,000  Level FlightAware ADS-B (LFML / MRS)
04:18PM 43.7574 6.0554 26° Northeast 449 517 34,000  Level FlightAware ADS-B (LFML / MRS)
04:18PM 43.8128 6.0939 26° Northeast 450 518 34,000  Level FlightAware ADS-B (LFML / MRS)
04:19PM 43.8691 6.1330 26° Northeast 449 517 34,000  Level FlightAware ADS-B (LFML / MRS)
04:19PM 43.9247 6.1717 26° Northeast 451 519 34,000  Level FlightAware ADS-B (LFML / MRS)
04:20PM 43.9805 6.2104 26° Northeast 452 520 34,000  Level FlightAware ADS-B (LFML / MRS)
04:20PM 44.0134 6.2333 26° Northeast 452 520 34,000  Level FlightAware ADS-B (LFML / MRS)
04:21PM 44.0916 6.2879 26° Northeast 452 520 34,000  Level FlightAware ADS-B (LFML / MRS)
04:21PM 44.1294 6.3145 26° Northeast 451 519 34,000  Level FlightAware ADS-B (LFML / MRS)
04:22PM 44.2048 6.3675 26° Northeast 452 520 34,000  Level FlightAware ADS-B (LFML / MRS)
04:22PM 44.2600 6.4063 26° Northeast 451 519 34,000  Level FlightAware ADS-B (LFML / MRS)
04:23PM 44.3172 6.4466 26° Northeast 451 519 34,000  Level FlightAware ADS-B (LFML / MRS)
04:23PM 44.3689 6.4832 26° Northeast 449 517 34,000  Level FlightAware ADS-B (LFML / MRS)
04:24PM 44.4287 6.5256 27° Northeast 449 517 34,000  Level FlightAware ADS-B (LFML / MRS)
04:24PM 44.4838 6.5647 26° Northeast 447 514 34,000  Level FlightAware ADS-B (LFML / MRS)
04:25PM 44.5394 6.6041 26° Northeast 446 513 34,000  Level FlightAware ADS-B (LFML / MRS)
04:25PM 44.5948 6.6436 27° Northeast 445 512 34,000  Level FlightAware ADS-B (LFML / MRS)
04:26PM 44.6497 6.6830 27° Northeast 445 512 34,000  Level FlightAware ADS-B (LFML / MRS)
04:26PM 44.7043 6.7221 27° Northeast 445 512 34,000  Level FlightAware ADS-B (LFML / MRS)
04:27PM 44.7601 6.7598 23° Northeast 443 510 34,000  Level FlightAware ADS-B (LFML / MRS)
04:27PM 44.7914 6.7769 17° North 440 506 34,000  Level FlightAware ADS-B (LFML / MRS)
04:28PM 44.8748 6.8085 10° North 437 503 34,000  Level FlightAware ADS-B (LFML / MRS)
04:28PM 44.9367 6.8235 North 437 503 34,000  Level FlightAware ADS-B (LFML / MRS)
04:29PM 44.9913 6.8367 North 437 503 34,000  Level FlightAware ADS-B (LFML / MRS)
04:29PM 45.0566 6.8526 North 438 504 34,000  Level FlightAware ADS-B (LFML / MRS)
04:30PM 45.1073 6.8649 North 438 504 34,000  Level FlightAware ADS-B (LFML / MRS)
04:30PM 45.1598 6.8776 10° North 438 504 34,000  Level FlightAware ADS-B
04:30PM 45.1765 6.8817 North 438 504 34,000  Level FlightAware ADS-B (LFML / MRS)
04:31PM 45.2198 6.8921 10° North 438 504 34,000  Level FlightAware ADS-B
04:31PM 45.2366 6.8962 North 438 504 34,000  Level FlightAware ADS-B (LFML / MRS)
04:31PM 45.2962 6.9107 North 439 505 34,000  Level FlightAware ADS-B (LFML / MRS)
04:32PM 45.2991 6.9114 10° North 439 505 34,000  Level FlightAware ADS-B
04:32PM 45.3547 6.9250 North 439 505 34,000  Level FlightAware ADS-B (LFML / MRS)
04:32PM 45.3557 6.9253 10° North 439 505 34,000  Level FlightAware ADS-B
04:33PM 45.4324 6.9440 10° North 439 505 34,000  Level FlightAware ADS-B
04:33PM 45.5020 6.9693 20° North 444 511 34,000  Level FlightAware ADS-B
04:33PM 45.5081 6.9726 North 439 505 34,000  Level FlightAware ADS-B (LFML / MRS)
04:34PM 45.5612 7.0089 27° Northeast 447 514 34,000  Level FlightAware ADS-B
04:34PM 45.6157 7.0487 27° Northeast 448 516 34,000  Level FlightAware ADS-B
04:35PM 45.6727 7.0906 27° Northeast 449 517 34,000  Level FlightAware ADS-B
04:35PM 45.7431 7.1425 27° Northeast 449 517 34,000  Level FlightAware ADS-B
04:36PM 45.7912 7.1781 27° Northeast 449 517 34,000  Level FlightAware ADS-B
04:37PM 45.8714 7.2375 28° Northeast 449 517 34,000  Level FlightAware ADS-B
04:37PM 45.9417 7.2899 28° Northeast 449 517 34,000  Level FlightAware ADS-B
04:38PM 46.0014 7.3344 28° Northeast 449 517 34,000  Level FlightAware ADS-B
04:38PM 46.0564 7.3755 28° Northeast 449 517 34,000  Level FlightAware ADS-B
04:39PM 46.1099 7.4156 28° Northeast 449 517 34,000  Level FlightAware ADS-B
04:39PM 46.1660 7.4578 28° Northeast 447 514 34,000 60 Level FlightAware ADS-B
04:40PM 46.2245 7.5019 28° Northeast 445 512 34,100  Climbing FlightAware ADS-B
04:40PM 46.2961 7.5535 24° Northeast 442 509 34,000 -120 Descending FlightAware ADS-B
04:41PM 46.3712 7.5959 21° North 437 503 34,000  Level FlightAware ADS-B
04:42PM 46.4298 7.6285 21° North 435 501 34,000  Level FlightAware ADS-B
04:42PM 46.4961 7.6654 21° North 433 498 34,000  Level FlightAware ADS-B
04:43PM 46.5745 7.7090 21° North 434 499 34,000  Level FlightAware ADS-B
04:43PM 46.6359 7.7435 21° North 434 499 34,000  Level FlightAware ADS-B
04:44PM 46.7104 7.7852 21° North 435 501 34,000  Level FlightAware ADS-B
04:45PM 46.7859 7.8276 21° North 438 504 34,000  Level FlightAware ADS-B
04:45PM 46.8418 7.8592 21° North 439 505 34,000 60 Level FlightAware ADS-B
04:46PM 46.9178 7.9021 21° North 439 505 34,100 60 Climbing FlightAware ADS-B
04:46PM 46.9741 7.9339 21° North 439 505 34,100 -120 Level FlightAware ADS-B
04:47PM 47.0311 7.9663 21° North 440 506 34,000 -480 Descending FlightAware ADS-B
04:48PM 47.1628 8.0578 26° Northeast 434 499 33,300 -780 Descending FlightAware ADS-B
04:49PM 47.2345 8.1042 19° North 427 491 32,600 -1,860 Descending FlightAware ADS-B
04:49PM 47.2954 8.1241 14° North 432 497 31,100 -2,700 Descending FlightAware ADS-B (ETSE)
04:50PM 47.3677 8.1595 20° North 431 496 29,500 -2,280 Descending FlightAware ADS-B (ETSE)
04:51PM 47.4460 8.2039 21° North 415 478 28,100 -2,160 Descending FlightAware ADS-B (ETSE)
04:51PM 47.4992 8.2345 21° North 410 472 26,800 -2,640 Descending FlightAware ADS-B (EDDM / MUC)
04:52PM 47.5262 8.2501 21° North 407 468 24,600 -2,340 Descending FlightAware ADS-B (LSZH / ZRH)
04:56PM 47.9670 8.5077 22° Northeast 369 425 16,300 -2,280 Descending FlightAware ADS-B (EDDM / MUC)
04:58PM 48.1347 8.6713 33° Northeast  Level Estimated
04:59PM 48.2270 8.7618 33° Northeast  Level Estimated
05:00PM 48.3191 8.8526 33° Northeast  Level Estimated
05:01PM 48.4112 8.9437 33° Northeast  Level Estimated
05:02PM 48.5032 9.0352 33° Northeast  Level Estimated
05:03PM 48.5952 9.1270 33° Northeast  Level Estimated
05:04PM 48.6871 9.2191 33° Northeast  Level Estimated
05:05PM 48.6899 9.2220 34° Northeast  Level Estimated
05:06PM 48.6899 9.2220 North  Level Estimated
05:07PM 48.6899 9.2220 North  Level Estimated
05:08PM 48.6899 9.2220 North  Level Estimated
05:09PM 48.6899 9.2220 North  Level Estimated
05:10PM 48.6899 9.2220 North  Level Estimated
05:11PM 48.6899 9.2220 North  Level Estimated
05:12PM 48.6899 9.2220 North  Level Estimated
05:13PM 48.6899 9.2220 North  Level Estimated
05:14PM 48.6899 9.2220 North  Level Estimated
05:15PM 48.6899 9.2220 North  Level Estimated
05:16PM 48.6899 9.2220 North  Level Estimated
05:17PM 48.6899 9.2220 North  Level Estimated
05:18PM 48.6899 9.2220 North  Level Estimated